createdAt,value
2017-05-25T00:00:30.651Z,12.85
2017-05-25T00:01:39.542Z,12.83
2017-05-25T00:02:48.441Z,12.79
2017-05-25T00:03:57.337Z,12.67
2017-05-25T00:05:06.554Z,12.75
2017-05-25T00:06:16.346Z,12.67
2017-05-25T00:07:25.892Z,12.71
2017-05-25T00:08:34.783Z,12.68
2017-05-25T00:09:44.002Z,12.53
2017-05-25T00:10:53.548Z,12.52
2017-05-25T00:12:02.817Z,12.57
2017-05-25T00:13:11.723Z,12.46
2017-05-25T00:14:20.942Z,12.49
2017-05-25T00:15:30.163Z,12.41
2017-05-25T00:16:39.527Z,12.49
2017-05-25T00:17:48.944Z,12.35
2017-05-25T00:18:58.485Z,12.28
2017-05-25T00:20:07.371Z,12.37
2017-05-25T00:21:16.588Z,12.38
2017-05-25T00:22:25.479Z,12.41
2017-05-25T00:23:34.570Z,12.21
2017-05-25T00:24:43.463Z,12.38
2017-05-25T00:25:52.686Z,12.37
2017-05-25T00:27:01.902Z,12.38
2017-05-25T00:28:11.440Z,12.5
2017-05-25T00:29:21.041Z,12.46
2017-05-25T00:30:30.259Z,12.49
2017-05-25T00:31:39.479Z,12.47
2017-05-25T00:32:48.371Z,12.56
2017-05-25T00:33:57.589Z,12.52
2017-05-25T00:35:06.959Z,12.46
2017-05-25T00:36:16.178Z,12.41
2017-05-25T00:37:25.391Z,12.47
2017-05-25T00:38:34.609Z,12.46
2017-05-25T00:39:43.824Z,12.42
2017-05-25T00:40:53.514Z,12.47
2017-05-25T00:42:02.407Z,12.42
2017-05-25T00:43:11.300Z,12.41
2017-05-25T00:44:20.901Z,12.41
2017-05-25T00:45:30.122Z,12.53
2017-05-25T00:46:39.633Z,12.54
2017-05-25T00:47:49.175Z,12.5
2017-05-25T00:48:58.068Z,12.47
2017-05-25T00:50:07.284Z,12.53
2017-05-25T00:51:16.175Z,12.5
2017-05-25T00:52:25.218Z,12.53
2017-05-25T00:53:34.436Z,12.47
2017-05-25T00:54:43.709Z,12.41
2017-05-25T00:55:53.576Z,12.49
2017-05-25T00:57:02.788Z,12.47
2017-05-25T00:58:12.907Z,12.53
2017-05-25T00:59:22.773Z,12.53
2017-05-25T01:00:32.323Z,12.54
2017-05-25T01:01:41.536Z,12.54
2017-05-25T01:02:50.756Z,12.56
2017-05-25T01:04:00.355Z,12.64
2017-05-25T01:05:09.250Z,12.6
2017-05-25T01:06:18.791Z,12.7
2017-05-25T01:07:27.685Z,12.65
2017-05-25T01:08:36.578Z,12.54
2017-05-25T01:09:45.473Z,12.56
2017-05-25T01:10:54.691Z,12.53
2017-05-25T01:12:03.586Z,12.53
2017-05-25T01:13:13.130Z,12.71
2017-05-25T01:14:22.348Z,12.72
2017-05-25T01:15:32.151Z,12.67
2017-05-25T01:16:41.045Z,12.7
2017-05-25T01:17:49.944Z,12.7
2017-05-25T01:18:58.837Z,12.7
2017-05-25T01:20:07.729Z,12.64
2017-05-25T01:21:16.771Z,12.77
2017-05-25T01:22:25.731Z,12.77
2017-05-25T01:23:34.946Z,12.79
2017-05-25T01:24:44.165Z,12.78
2017-05-25T01:25:53.710Z,12.85
2017-05-25T01:27:03.405Z,12.87
2017-05-25T01:28:12.636Z,12.85
2017-05-25T01:29:22.182Z,12.78
2017-05-25T01:30:31.406Z,12.78
2017-05-25T01:31:40.303Z,12.85
2017-05-25T01:32:49.670Z,12.9
2017-05-25T01:33:58.566Z,12.77
2017-05-25T01:35:07.784Z,12.83
2017-05-25T01:36:16.673Z,12.82
2017-05-25T01:37:25.568Z,12.71
2017-05-25T01:38:34.789Z,12.74
2017-05-25T01:39:44.013Z,12.72
2017-05-25T01:40:53.880Z,12.77
2017-05-25T01:42:03.097Z,12.68
2017-05-25T01:43:12.645Z,12.68
2017-05-25T01:44:22.341Z,12.71
2017-05-25T01:45:31.884Z,12.67
2017-05-25T01:46:41.105Z,12.74
2017-05-25T01:47:50.324Z,12.79
2017-05-25T01:48:59.547Z,12.71
2017-05-25T01:50:08.487Z,12.68
2017-05-25T01:51:17.711Z,12.7
2017-05-25T01:52:26.930Z,12.78
2017-05-25T01:53:36.478Z,12.67
2017-05-25T01:54:45.700Z,12.65
2017-05-25T01:55:55.395Z,12.7
2017-05-25T01:57:04.291Z,12.7
2017-05-25T01:58:13.184Z,12.54
2017-05-25T01:59:22.142Z,12.6
2017-05-25T02:00:31.036Z,12.52
2017-05-25T02:01:40.254Z,12.56
2017-05-25T02:02:49.147Z,12.5
2017-05-25T02:03:59.025Z,12.65
2017-05-25T02:05:07.916Z,12.52
2017-05-25T02:06:17.137Z,12.6
2017-05-25T02:07:26.177Z,12.57
2017-05-25T02:08:35.395Z,12.53
2017-05-25T02:09:44.615Z,12.56
2017-05-25T02:10:54.488Z,12.5
2017-05-25T02:12:03.387Z,12.56
2017-05-25T02:13:12.527Z,12.6
2017-05-25T02:14:21.424Z,12.56
2017-05-25T02:15:30.319Z,12.59
2017-05-25T02:16:39.540Z,12.7
2017-05-25T02:17:48.430Z,12.7
2017-05-25T02:18:57.425Z,12.68
2017-05-25T02:20:06.967Z,12.5
2017-05-25T02:21:16.185Z,12.57
2017-05-25T02:22:25.079Z,12.59
2017-05-25T02:23:34.295Z,12.57
2017-05-25T02:24:43.186Z,12.57
2017-05-25T02:25:52.736Z,12.77
2017-05-25T02:27:01.956Z,12.67
2017-05-25T02:28:11.229Z,12.72
2017-05-25T02:29:20.769Z,12.7
2017-05-25T02:30:30.140Z,12.64
2017-05-25T02:31:39.354Z,12.7
2017-05-25T02:32:48.252Z,12.62
2017-05-25T02:33:57.147Z,12.64
2017-05-25T02:35:06.690Z,12.52
2017-05-25T02:36:16.556Z,12.53
2017-05-25T02:37:25.774Z,12.56
2017-05-25T02:38:35.313Z,12.53
2017-05-25T02:39:44.207Z,12.54
2017-05-25T02:40:53.748Z,12.57
2017-05-25T02:42:03.123Z,12.53
2017-05-25T02:43:12.339Z,12.57
2017-05-25T02:44:22.221Z,12.53
2017-05-25T02:45:31.446Z,12.5
2017-05-25T02:46:40.338Z,12.46
2017-05-25T02:47:50.366Z,12.54
2017-05-25T02:48:59.915Z,12.7
2017-05-25T02:50:09.135Z,12.65
2017-05-25T02:51:18.679Z,12.65
2017-05-25T02:52:27.571Z,12.7
2017-05-25T02:53:36.937Z,12.74
2017-05-25T02:54:46.154Z,12.75
2017-05-25T02:55:55.711Z,12.68
2017-05-25T02:57:04.925Z,12.64
2017-05-25T02:58:14.147Z,12.67
2017-05-25T02:59:23.093Z,12.7
2017-05-25T03:00:32.964Z,12.7
2017-05-25T03:01:41.860Z,12.65
2017-05-25T03:02:51.083Z,12.7
2017-05-25T03:04:00.306Z,12.68
2017-05-25T03:05:09.674Z,12.47
2017-05-25T03:06:18.573Z,12.6
2017-05-25T03:07:27.794Z,12.68
2017-05-25T03:08:38.051Z,12.56
2017-05-25T03:09:47.593Z,12.52
2017-05-25T03:10:56.793Z,12.7
2017-05-25T03:12:05.688Z,12.56
2017-05-25T03:13:14.905Z,12.57
2017-05-25T03:14:24.138Z,12.68
2017-05-25T03:15:33.358Z,12.79
2017-05-25T03:16:42.401Z,12.83
2017-05-25T03:17:51.615Z,12.71
2017-05-25T03:19:00.510Z,12.78
2017-05-25T03:20:09.401Z,12.77
2017-05-25T03:21:18.619Z,12.72
2017-05-25T03:22:27.657Z,12.74
2017-05-25T03:23:36.879Z,12.59
2017-05-25T03:24:46.099Z,12.67
2017-05-25T03:25:55.002Z,12.67
2017-05-25T03:27:04.220Z,12.54
2017-05-25T03:28:13.495Z,12.53
2017-05-25T03:29:22.719Z,12.65
2017-05-25T03:30:31.941Z,12.67
2017-05-25T03:31:41.155Z,12.6
2017-05-25T03:32:50.053Z,12.65
2017-05-25T03:33:59.701Z,12.67
2017-05-25T03:35:08.598Z,12.67
2017-05-25T03:36:17.492Z,12.56
2017-05-25T03:37:26.713Z,12.68
2017-05-25T03:38:35.605Z,12.79
2017-05-25T03:39:45.582Z,12.77
2017-05-25T03:40:54.476Z,12.67
2017-05-25T03:42:03.692Z,12.56
2017-05-25T03:43:13.567Z,12.54
2017-05-25T03:44:23.437Z,12.5
2017-05-25T03:45:32.710Z,12.65
2017-05-25T03:46:41.926Z,12.7
2017-05-25T03:47:51.143Z,12.72
2017-05-25T03:49:00.045Z,12.75
2017-05-25T03:50:09.587Z,12.75
2017-05-25T03:51:19.283Z,12.83
2017-05-25T03:52:28.178Z,12.75
2017-05-25T03:53:37.074Z,12.77
2017-05-25T03:54:46.618Z,12.77
2017-05-25T03:55:55.513Z,12.86
2017-05-25T03:57:04.556Z,12.79
2017-05-25T03:58:14.428Z,12.74
2017-05-25T03:59:23.651Z,12.74
2017-05-25T04:00:33.523Z,12.77
2017-05-25T04:01:42.739Z,12.77
2017-05-25T04:02:51.965Z,12.72
2017-05-25T04:04:01.510Z,12.75
2017-05-25T04:05:10.732Z,12.64
2017-05-25T04:06:19.952Z,12.7
2017-05-25T04:07:28.846Z,12.52
2017-05-25T04:08:38.365Z,12.7
2017-05-25T04:09:47.917Z,12.67
2017-05-25T04:10:57.131Z,12.67
2017-05-25T04:12:06.025Z,12.74
2017-05-25T04:13:15.574Z,12.67
2017-05-25T04:14:25.117Z,12.67
2017-05-25T04:15:34.664Z,12.65
2017-05-25T04:16:43.556Z,12.64
2017-05-25T04:17:52.774Z,12.77
2017-05-25T04:19:02.321Z,12.79
2017-05-25T04:20:11.787Z,12.79
2017-05-25T04:21:21.333Z,12.78
2017-05-25T04:22:30.282Z,12.75
2017-05-25T04:23:39.178Z,12.78
2017-05-25T04:24:48.396Z,12.75
2017-05-25T04:25:57.455Z,12.77
2017-05-25T04:27:06.351Z,12.72
2017-05-25T04:28:15.246Z,12.79
2017-05-25T04:29:24.793Z,12.78
2017-05-25T04:30:34.012Z,12.79
2017-05-25T04:31:43.064Z,12.72
2017-05-25T04:32:52.284Z,12.85
2017-05-25T04:34:01.831Z,12.87
2017-05-25T04:35:11.377Z,12.78
2017-05-25T04:36:20.591Z,12.79
2017-05-25T04:37:29.640Z,12.9
2017-05-25T04:38:39.513Z,12.92
2017-05-25T04:39:49.057Z,12.93
2017-05-25T04:40:57.949Z,12.85
2017-05-25T04:42:07.167Z,12.9
2017-05-25T04:43:16.213Z,12.89
2017-05-25T04:44:25.756Z,12.93
2017-05-25T04:45:35.631Z,12.95
2017-05-25T04:46:44.851Z,13.05
2017-05-25T04:47:53.750Z,13.01
2017-05-25T04:49:03.182Z,12.92
2017-05-25T04:50:12.081Z,12.87
2017-05-25T04:51:21.301Z,12.9
2017-05-25T04:52:30.517Z,12.83
2017-05-25T04:53:40.388Z,12.87
2017-05-25T04:54:49.657Z,12.93
2017-05-25T04:55:58.883Z,12.87
2017-05-25T04:57:08.103Z,12.92
2017-05-25T04:58:17.326Z,12.85
2017-05-25T04:59:26.217Z,12.93
2017-05-25T05:00:35.112Z,12.82
2017-05-25T05:01:44.668Z,12.87
2017-05-25T05:02:53.560Z,12.77
2017-05-25T05:04:02.785Z,12.85
2017-05-25T05:05:11.674Z,12.7
2017-05-25T05:06:20.866Z,12.67
2017-05-25T05:07:30.409Z,12.78
2017-05-25T05:08:39.632Z,12.68
2017-05-25T05:09:48.883Z,12.7
2017-05-25T05:10:58.163Z,12.64
2017-05-25T05:12:07.381Z,12.83
2017-05-25T05:13:16.622Z,12.85
2017-05-25T05:14:25.845Z,12.65
2017-05-25T05:15:35.064Z,12.71
2017-05-25T05:16:43.957Z,12.74
2017-05-25T05:17:53.552Z,12.75
2017-05-25T05:19:02.774Z,12.77
2017-05-25T05:20:11.668Z,12.67
2017-05-25T05:21:20.560Z,12.77
2017-05-25T05:22:29.781Z,12.67
2017-05-25T05:23:38.676Z,12.78
2017-05-25T05:24:48.222Z,12.78
2017-05-25T05:25:57.115Z,12.92
2017-05-25T05:27:06.009Z,12.82
2017-05-25T05:28:15.231Z,12.82
2017-05-25T05:29:25.253Z,12.86
2017-05-25T05:30:34.474Z,12.74
2017-05-25T05:31:43.367Z,12.79
2017-05-25T05:32:52.583Z,12.78
2017-05-25T05:34:01.802Z,12.68
2017-05-25T05:35:11.446Z,12.67
2017-05-25T05:36:20.344Z,12.79
2017-05-25T05:37:29.565Z,12.78
2017-05-25T05:38:38.462Z,12.93
2017-05-25T05:39:47.692Z,12.86
2017-05-25T05:40:56.755Z,12.77
2017-05-25T05:42:05.653Z,12.82
2017-05-25T05:43:14.783Z,12.85
2017-05-25T05:44:23.678Z,12.92
2017-05-25T05:45:33.221Z,12.86
2017-05-25T05:46:42.442Z,12.93
2017-05-25T05:47:51.342Z,12.85
2017-05-25T05:49:01.213Z,12.95
2017-05-25T05:50:10.123Z,13.01
2017-05-25T05:51:19.035Z,13.04
2017-05-25T05:52:57.677Z,13.17
2017-05-25T05:54:07.238Z,13.11
2017-05-25T05:55:16.742Z,13.11
2017-05-25T05:56:25.987Z,13.17
2017-05-25T05:57:35.491Z,13
2017-05-25T05:58:44.747Z,13.08
2017-05-25T05:59:54.032Z,13.03
2017-05-25T06:01:02.943Z,13.14
2017-05-25T06:02:12.168Z,13.11
2017-05-25T06:03:21.425Z,13.05
2017-05-25T06:04:30.430Z,13.39
2017-05-25T06:05:39.767Z,13
2017-05-25T06:06:49.114Z,13.03
2017-05-25T06:07:58.195Z,12.92
2017-05-25T06:09:07.414Z,12.96
2017-05-25T06:10:17.434Z,12.92
2017-05-25T06:11:26.523Z,13.01
2017-05-25T06:12:35.595Z,12.93
2017-05-25T06:13:45.936Z,12.89
2017-05-25T06:14:55.627Z,12.96
2017-05-25T06:16:05.284Z,13.04
2017-05-25T06:17:14.256Z,12.92
2017-05-25T06:18:23.815Z,12.92
2017-05-25T06:19:33.361Z,12.85
2017-05-25T06:20:42.732Z,12.87
2017-05-25T06:21:51.996Z,12.97
2017-05-25T06:23:01.138Z,13.04
2017-05-25T06:24:10.694Z,13.04
2017-05-25T06:25:20.567Z,13.03
2017-05-25T06:26:29.934Z,13.11
2017-05-25T06:27:39.155Z,13.08
2017-05-25T06:28:49.026Z,13.01
2017-05-25T06:29:58.575Z,13.19
2017-05-25T06:31:07.794Z,13.01
2017-05-25T06:32:16.708Z,13.04
2017-05-25T06:33:26.272Z,13.05
2017-05-25T06:34:35.820Z,13.07
2017-05-25T06:35:45.035Z,13.19
2017-05-25T06:36:53.932Z,13.08
2017-05-25T06:38:03.300Z,13.04
2017-05-25T06:39:12.520Z,13.17
2017-05-25T06:40:22.071Z,13.32
2017-05-25T06:41:30.964Z,13.15
2017-05-25T06:42:40.182Z,13.15
2017-05-25T06:43:49.881Z,13.19
2017-05-25T06:44:59.432Z,13.17
2017-05-25T06:46:08.325Z,13.15
2017-05-25T06:47:17.216Z,13.28
2017-05-25T06:48:26.437Z,13.17
2017-05-25T06:49:36.404Z,12.96
2017-05-25T06:50:45.628Z,13.03
2017-05-25T06:51:54.853Z,13.03
2017-05-25T06:53:03.756Z,13.05
2017-05-25T06:54:12.651Z,13.08
2017-05-25T06:55:22.520Z,13.12
2017-05-25T06:56:31.741Z,13.2
2017-05-25T06:57:40.963Z,13.39
2017-05-25T06:58:50.512Z,13.1
2017-05-25T06:59:59.735Z,13.22
2017-05-25T07:01:08.986Z,13.15
2017-05-25T07:02:18.206Z,13.17
2017-05-25T07:03:27.100Z,13.29
2017-05-25T07:04:36.322Z,13.33
2017-05-25T07:05:45.214Z,13.32
2017-05-25T07:06:54.588Z,13.33
2017-05-25T07:08:03.840Z,13.19
2017-05-25T07:09:12.740Z,13.36
2017-05-25T07:10:21.961Z,13.36
2017-05-25T07:11:31.187Z,13.38
2017-05-25T07:12:40.735Z,13.49
2017-05-25T07:13:50.610Z,13.46
2017-05-25T07:15:00.162Z,13.46
2017-05-25T07:16:09.395Z,13.45
2017-05-25T07:17:19.522Z,13.49
2017-05-25T07:18:28.892Z,13.46
2017-05-25T07:19:37.809Z,13.48
2017-05-25T07:20:47.024Z,13.51
2017-05-25T07:21:56.568Z,13.48
2017-05-25T07:23:05.465Z,13.38
2017-05-25T07:24:14.709Z,13.41
2017-05-25T07:25:24.623Z,13.48
2017-05-25T07:26:33.518Z,13.44
2017-05-25T07:27:43.066Z,13.6
2017-05-25T07:28:52.676Z,13.48
2017-05-25T07:30:03.072Z,13.59
2017-05-25T07:31:11.970Z,13.66
2017-05-25T07:32:20.863Z,13.71
2017-05-25T07:33:29.762Z,13.78
2017-05-25T07:34:38.656Z,13.71
2017-05-25T07:35:48.246Z,13.77
2017-05-25T07:36:58.113Z,13.79
2017-05-25T07:38:07.396Z,13.84
2017-05-25T07:39:16.625Z,13.88
2017-05-25T07:40:25.851Z,13.95
2017-05-25T07:41:34.895Z,13.81
2017-05-25T07:42:43.808Z,14.04
2017-05-25T07:43:53.031Z,14
2017-05-25T07:45:02.908Z,13.96
2017-05-25T07:46:11.804Z,14.03
2017-05-25T07:47:20.702Z,13.97
2017-05-25T07:48:29.924Z,13.96
2017-05-25T07:49:39.474Z,14.06
2017-05-25T07:50:49.020Z,14.15
2017-05-25T07:51:58.579Z,14.18
2017-05-25T07:53:07.850Z,14.1
2017-05-25T07:54:16.753Z,14.15
2017-05-25T07:55:25.651Z,14.22
2017-05-25T07:56:34.874Z,14.1
2017-05-25T07:57:43.772Z,14.12
2017-05-25T07:58:52.722Z,14.24
2017-05-25T08:00:02.603Z,14.5
2017-05-25T08:01:11.826Z,14.57
2017-05-25T08:02:21.376Z,14.64
2017-05-25T08:03:30.596Z,14.65
2017-05-25T08:04:39.818Z,14.54
2017-05-25T08:05:49.041Z,14.54
2017-05-25T08:06:58.265Z,14.62
2017-05-25T08:08:07.165Z,14.7
2017-05-25T08:09:16.723Z,14.81
2017-05-25T08:10:25.772Z,14.88
2017-05-25T08:11:34.995Z,14.92
2017-05-25T08:12:44.549Z,14.98
2017-05-25T08:13:53.447Z,15.07
2017-05-25T08:15:02.672Z,14.96
2017-05-25T08:16:12.274Z,15.07
2017-05-25T08:17:21.492Z,15.19
2017-05-25T08:18:30.715Z,15.21
2017-05-25T08:19:40.266Z,15.14
2017-05-25T08:20:49.167Z,15.25
2017-05-25T08:21:58.759Z,15.28
2017-05-25T08:23:07.655Z,15.32
2017-05-25T08:24:16.558Z,15.28
2017-05-25T08:25:26.148Z,15.27
2017-05-25T08:26:36.230Z,15.39
2017-05-25T08:27:45.937Z,15.43
2017-05-25T08:28:55.808Z,15.28
2017-05-25T08:30:05.031Z,15.28
2017-05-25T08:31:14.583Z,15.27
2017-05-25T08:32:23.482Z,15.27
2017-05-25T08:33:32.762Z,15.27
2017-05-25T08:34:41.661Z,15.23
2017-05-25T08:35:51.213Z,15.28
2017-05-25T08:37:00.768Z,15.28
2017-05-25T08:38:09.662Z,15.17
2017-05-25T08:39:18.986Z,15.25
2017-05-25T08:40:28.209Z,15.39
2017-05-25T08:41:37.758Z,15.49
2017-05-25T08:42:47.384Z,15.6
2017-05-25T08:43:56.283Z,15.47
2017-05-25T08:45:05.984Z,15.51
2017-05-25T08:46:14.882Z,15.54
2017-05-25T08:47:24.442Z,15.51
2017-05-25T08:48:33.662Z,15.57
2017-05-25T08:49:42.887Z,15.57
2017-05-25T08:50:52.309Z,15.65
2017-05-25T08:52:01.208Z,15.74
2017-05-25T08:53:10.436Z,15.87
2017-05-25T08:54:19.673Z,15.97
2017-05-25T08:55:28.899Z,16
2017-05-25T08:56:37.894Z,16.01
2017-05-25T08:57:46.788Z,16.15
2017-05-25T08:58:56.013Z,16.05
2017-05-25T09:00:05.237Z,16.04
2017-05-25T09:01:14.131Z,16.09
2017-05-25T09:02:23.130Z,16.2
2017-05-25T09:03:32.367Z,16.05
2017-05-25T09:04:41.262Z,16.08
2017-05-25T09:05:51.137Z,15.97
2017-05-25T09:07:00.037Z,15.96
2017-05-25T09:08:09.739Z,16.02
2017-05-25T09:09:19.290Z,16.12
2017-05-25T09:10:28.853Z,16.27
2017-05-25T09:11:38.128Z,16.23
2017-05-25T09:12:47.029Z,16.09
2017-05-25T09:13:57.208Z,16.09
2017-05-25T09:15:06.439Z,16.23
2017-05-25T09:16:15.348Z,16.25
2017-05-25T09:17:24.249Z,16.34
2017-05-25T09:18:33.803Z,16.46
2017-05-25T09:19:42.851Z,16.52
2017-05-25T09:20:52.076Z,16.5
2017-05-25T09:22:00.974Z,16.63
2017-05-25T09:23:09.884Z,16.7
2017-05-25T09:24:19.760Z,16.75
2017-05-25T09:25:28.877Z,16.85
2017-05-25T09:26:38.100Z,16.82
2017-05-25T09:27:46.996Z,16.75
2017-05-25T09:28:56.289Z,16.78
2017-05-25T09:30:05.922Z,16.76
2017-05-25T09:31:14.922Z,16.85
2017-05-25T09:32:24.142Z,16.96
2017-05-25T09:33:34.014Z,16.88
2017-05-25T09:34:43.559Z,16.97
2017-05-25T09:35:52.781Z,16.96
2017-05-25T09:37:01.991Z,17
2017-05-25T09:38:11.215Z,16.96
2017-05-25T09:39:20.765Z,16.88
2017-05-25T09:40:30.314Z,16.81
2017-05-25T09:41:39.536Z,16.79
2017-05-25T09:42:48.761Z,16.94
2017-05-25T09:43:57.986Z,17.12
2017-05-25T09:45:06.882Z,17.37
2017-05-25T09:46:16.105Z,17.3
2017-05-25T09:47:25.006Z,17.16
2017-05-25T09:48:34.381Z,17.06
2017-05-25T09:49:43.932Z,16.91
2017-05-25T09:50:53.176Z,17.04
2017-05-25T09:52:02.108Z,17.12
2017-05-25T09:53:11.007Z,17.03
2017-05-25T09:54:20.694Z,17.15
2017-05-25T09:55:30.241Z,17.19
2017-05-25T09:56:39.467Z,17.08
2017-05-25T09:57:48.365Z,17.03
2017-05-25T09:58:57.660Z,17.01
2017-05-25T10:00:07.195Z,16.97
2017-05-25T10:01:16.094Z,16.98
2017-05-25T10:02:25.328Z,17.01
2017-05-25T10:03:34.228Z,17.04
2017-05-25T10:04:43.499Z,17.22
2017-05-25T10:05:52.879Z,17.31
2017-05-25T10:07:01.778Z,17.41
2017-05-25T10:08:11.658Z,17.22
2017-05-25T10:09:20.885Z,17.15
2017-05-25T10:10:30.110Z,17.15
2017-05-25T10:11:39.426Z,17.15
2017-05-25T10:12:48.329Z,16.98
2017-05-25T10:13:57.559Z,17.06
2017-05-25T10:15:07.108Z,17.26
2017-05-25T10:16:16.332Z,17.33
2017-05-25T10:17:25.605Z,17.37
2017-05-25T10:18:34.886Z,17.38
2017-05-25T10:19:44.434Z,17.3
2017-05-25T10:20:53.670Z,17.3
2017-05-25T10:22:02.572Z,17.33
2017-05-25T10:23:11.616Z,17.44
2017-05-25T10:24:20.836Z,17.48
2017-05-25T10:25:29.753Z,17.37
2017-05-25T10:26:38.974Z,17.37
2017-05-25T10:27:48.532Z,17.38
2017-05-25T10:28:57.955Z,17.37
2017-05-25T10:30:06.856Z,17.54
2017-05-25T10:31:16.079Z,17.63
2017-05-25T10:32:24.976Z,17.62
2017-05-25T10:33:34.207Z,17.66
2017-05-25T10:34:44.395Z,17.7
2017-05-25T10:35:54.014Z,17.71
2017-05-25T10:37:03.565Z,17.75
2017-05-25T10:38:12.470Z,17.78
2017-05-25T10:39:21.694Z,17.89
2017-05-25T10:40:31.670Z,17.78
2017-05-25T10:41:41.216Z,17.93
2017-05-25T10:42:50.439Z,17.9
2017-05-25T10:43:59.681Z,17.97
2017-05-25T10:45:08.579Z,18.05
2017-05-25T10:46:17.766Z,18.11
2017-05-25T10:47:26.991Z,18.23
2017-05-25T10:48:35.890Z,18.29
2017-05-25T10:49:45.185Z,18.25
2017-05-25T10:50:54.082Z,18.23
2017-05-25T10:52:03.032Z,18.15
2017-05-25T10:53:12.266Z,18.07
2017-05-25T10:54:21.168Z,18.03
2017-05-25T10:55:30.724Z,17.92
2017-05-25T10:56:39.626Z,18
2017-05-25T10:57:49.002Z,18.14
2017-05-25T10:58:58.880Z,18.07
2017-05-25T11:00:08.106Z,18.17
2017-05-25T11:01:17.005Z,18.08
2017-05-25T11:02:26.555Z,18.08
2017-05-25T11:03:36.218Z,18.18
2017-05-25T11:04:45.769Z,18.21
2017-05-25T11:05:54.992Z,18.25
2017-05-25T11:07:04.220Z,18.23
2017-05-25T11:08:13.449Z,18.33
2017-05-25T11:09:22.825Z,18.32
2017-05-25T11:10:32.062Z,18.33
2017-05-25T11:11:40.964Z,18.32
2017-05-25T11:12:50.838Z,18.37
2017-05-25T11:14:00.074Z,18.47
2017-05-25T11:15:08.973Z,18.51
2017-05-25T11:16:17.874Z,18.45
2017-05-25T11:17:27.110Z,18.45
2017-05-25T11:18:36.012Z,18.6
2017-05-25T11:19:46.227Z,18.55
2017-05-25T11:20:55.618Z,18.65
2017-05-25T11:22:04.848Z,18.62
2017-05-25T11:23:13.745Z,18.67
2017-05-25T11:24:23.302Z,18.76
2017-05-25T11:25:32.862Z,18.78
2017-05-25T11:26:42.386Z,18.85
2017-05-25T11:27:51.613Z,18.8
2017-05-25T11:29:01.164Z,18.78
2017-05-25T11:30:10.392Z,18.84
2017-05-25T11:31:19.621Z,18.95
2017-05-25T11:32:28.900Z,18.88
2017-05-25T11:33:37.802Z,18.95
2017-05-25T11:34:47.357Z,18.88
2017-05-25T11:35:56.909Z,18.92
2017-05-25T11:37:05.812Z,18.98
2017-05-25T11:38:15.292Z,18.99
2017-05-25T11:39:24.852Z,18.92
2017-05-25T11:40:34.079Z,19.1
2017-05-25T11:41:42.986Z,19.08
2017-05-25T11:42:52.548Z,19.06
2017-05-25T11:44:01.610Z,19.19
2017-05-25T11:45:10.519Z,19.39
2017-05-25T11:46:19.752Z,19.41
2017-05-25T11:47:28.663Z,19.47
2017-05-25T11:48:38.224Z,19.44
2017-05-25T11:49:47.292Z,19.61
2017-05-25T11:50:56.521Z,19.68
2017-05-25T11:52:05.421Z,19.76
2017-05-25T11:53:14.647Z,19.68
2017-05-25T11:54:23.872Z,19.88
2017-05-25T11:55:33.676Z,19.86
2017-05-25T11:56:42.577Z,19.92
2017-05-25T11:57:51.804Z,19.99
2017-05-25T11:59:01.036Z,19.88
2017-05-25T12:00:10.592Z,19.74
2017-05-25T12:01:19.872Z,19.86
2017-05-25T12:02:28.776Z,19.74
2017-05-25T12:03:38.331Z,19.88
2017-05-25T12:04:47.942Z,19.91
2017-05-25T12:05:57.224Z,20.17
2017-05-25T12:07:06.231Z,20.28
2017-05-25T12:08:16.116Z,20.33
2017-05-25T12:09:25.670Z,20.48
2017-05-25T12:10:34.570Z,20.35
2017-05-25T12:11:43.473Z,20.32
2017-05-25T12:12:53.503Z,20.31
2017-05-25T12:14:02.729Z,20.32
2017-05-25T12:15:11.631Z,20.32
2017-05-25T12:16:21.186Z,20.33
2017-05-25T12:17:30.415Z,20.35
2017-05-25T12:18:40.291Z,20.31
2017-05-25T12:19:50.506Z,20.29
2017-05-25T12:20:59.414Z,20.52
2017-05-25T12:22:08.322Z,20.8
2017-05-25T12:23:17.551Z,20.88
2017-05-25T12:24:27.589Z,20.82
2017-05-25T12:25:36.495Z,20.74
2017-05-25T12:26:45.728Z,20.94
2017-05-25T12:27:55.287Z,20.82
2017-05-25T12:29:04.521Z,21.1
2017-05-25T12:30:13.578Z,21.04
2017-05-25T12:31:22.812Z,21.16
2017-05-25T12:32:32.364Z,21.1
2017-05-25T12:33:41.272Z,21.07
2017-05-25T12:34:50.180Z,20.92
2017-05-25T12:35:59.236Z,21.04
2017-05-25T12:37:08.135Z,21.14
2017-05-25T12:38:17.369Z,21.01
2017-05-25T12:39:27.252Z,20.92
2017-05-25T12:40:36.157Z,20.92
2017-05-25T12:41:45.819Z,21.03
2017-05-25T12:42:54.726Z,21.09
2017-05-25T12:44:04.608Z,21.06
2017-05-25T12:45:13.510Z,21.17
2017-05-25T12:46:22.413Z,21.29
2017-05-25T12:47:31.470Z,21.25
2017-05-25T12:48:40.717Z,21.31
2017-05-25T12:49:50.274Z,21.28
2017-05-25T12:50:59.185Z,21.34
2017-05-25T12:52:08.749Z,21.32
2017-05-25T12:53:17.706Z,21.35
2017-05-25T12:54:27.103Z,21.47
2017-05-25T12:55:36.665Z,21.61
2017-05-25T12:56:45.898Z,21.8
2017-05-25T12:57:55.131Z,21.74
2017-05-25T12:59:04.189Z,21.62
2017-05-25T13:00:13.097Z,21.58
2017-05-25T13:01:22.332Z,21.56
2017-05-25T13:02:31.557Z,21.9
2017-05-25T13:03:40.462Z,21.92
2017-05-25T13:04:49.851Z,21.94
2017-05-25T13:05:59.409Z,21.82
2017-05-25T13:07:08.332Z,21.94
2017-05-25T13:08:17.566Z,21.83
2017-05-25T13:09:27.132Z,21.84
2017-05-25T13:10:36.365Z,21.71
2017-05-25T13:11:45.597Z,21.62
2017-05-25T13:12:54.505Z,21.62
2017-05-25T13:14:03.735Z,21.71
2017-05-25T13:15:13.018Z,21.82
2017-05-25T13:16:21.924Z,21.8
2017-05-25T13:17:30.833Z,21.82
2017-05-25T13:18:40.069Z,21.79
2017-05-25T13:19:49.632Z,21.79
2017-05-25T13:20:58.539Z,21.86
2017-05-25T13:22:08.073Z,21.77
2017-05-25T13:23:16.995Z,21.86
2017-05-25T13:24:26.234Z,21.74
2017-05-25T13:25:35.472Z,21.92
2017-05-25T13:26:45.353Z,21.99
2017-05-25T13:27:54.951Z,21.96
2017-05-25T13:29:04.859Z,21.84
2017-05-25T13:30:13.764Z,21.83
2017-05-25T13:31:22.670Z,21.98
2017-05-25T13:32:31.583Z,21.8
2017-05-25T13:33:40.970Z,21.86
2017-05-25T13:34:50.205Z,21.96
2017-05-25T13:35:59.762Z,22.25
2017-05-25T13:37:08.669Z,22.14
2017-05-25T13:38:17.576Z,22
2017-05-25T13:39:26.747Z,22.09
2017-05-25T13:40:36.310Z,22.09
2017-05-25T13:41:45.545Z,22.1
2017-05-25T13:42:55.103Z,22.31
2017-05-25T13:44:04.667Z,22.43
2017-05-25T13:45:13.731Z,22.47
2017-05-25T13:46:22.637Z,22.45
2017-05-25T13:47:31.868Z,22.25
2017-05-25T13:48:41.758Z,22.24
2017-05-25T13:49:51.322Z,22.15
2017-05-25T13:51:00.981Z,22.18
2017-05-25T13:52:10.225Z,22.14
2017-05-25T13:53:19.785Z,22.05
2017-05-25T13:54:28.843Z,22.09
2017-05-25T13:55:38.075Z,22.21
2017-05-25T13:56:47.838Z,22.22
2017-05-25T13:57:56.755Z,22.09
2017-05-25T13:59:06.311Z,22.15
2017-05-25T14:00:15.219Z,21.99
2017-05-25T14:01:24.455Z,22.02
2017-05-25T14:02:33.687Z,22.02
2017-05-25T14:03:42.920Z,22.06
2017-05-25T14:04:52.485Z,22
2017-05-25T14:06:02.040Z,22.09
2017-05-25T14:07:11.270Z,22.14
2017-05-25T14:08:20.823Z,22.14
2017-05-25T14:09:30.380Z,22.14
2017-05-25T14:10:39.937Z,22.03
2017-05-25T14:11:49.198Z,21.96
2017-05-25T14:12:58.437Z,22.09
2017-05-25T14:14:07.607Z,22.1
2017-05-25T14:15:16.888Z,22.03
2017-05-25T14:16:25.808Z,22.18
2017-05-25T14:17:35.066Z,22.21
2017-05-25T14:18:43.976Z,22.15
2017-05-25T14:19:53.410Z,22.2
2017-05-25T14:21:02.641Z,22.3
2017-05-25T14:22:11.552Z,22.36
2017-05-25T14:23:20.797Z,22.25
2017-05-25T14:24:30.030Z,21.99
2017-05-25T14:25:39.469Z,21.92
2017-05-25T14:26:48.381Z,22
2017-05-25T14:27:57.943Z,22.15
2017-05-25T14:29:07.189Z,22.02
2017-05-25T14:30:16.752Z,21.9
2017-05-25T14:31:25.711Z,21.92
2017-05-25T14:32:34.617Z,21.92
2017-05-25T14:33:43.863Z,22.03
2017-05-25T14:34:53.102Z,22
2017-05-25T14:36:02.666Z,22.18
2017-05-25T14:37:12.168Z,22.21
2017-05-25T14:38:21.401Z,22.35
2017-05-25T14:39:30.958Z,22.24
2017-05-25T14:40:40.188Z,22.18
2017-05-25T14:41:49.097Z,22.21
2017-05-25T14:42:58.576Z,22.35
2017-05-25T14:44:07.480Z,22.18
2017-05-25T14:45:16.386Z,22.25
2017-05-25T14:46:25.296Z,22.22
2017-05-25T14:47:34.200Z,22.2
2017-05-25T14:48:43.812Z,22.33
2017-05-25T14:49:53.059Z,22.33
2017-05-25T14:51:02.290Z,22.35
2017-05-25T14:52:11.200Z,22.36
2017-05-25T14:53:20.430Z,22.3
2017-05-25T14:54:29.713Z,22.31
2017-05-25T14:55:38.619Z,22.54
2017-05-25T14:56:48.178Z,22.51